createdAt,value
2022-10-30T00:01:23.771Z,5.20
2022-10-30T00:03:51.961Z,5.40
2022-10-30T00:06:21.605Z,5.40
2022-10-30T00:08:49.802Z,5.03
2022-10-30T00:11:18.006Z,4.20
2022-10-30T00:13:46.156Z,5.00
2022-10-30T00:16:14.606Z,6.00
2022-10-30T00:18:43.266Z,4.50
2022-10-30T00:21:12.565Z,6.00
2022-10-30T00:23:46.665Z,5.10
2022-10-30T00:26:14.868Z,6.40
2022-10-30T00:28:43.060Z,5.03
2022-10-30T00:31:11.302Z,4.17
2022-10-30T00:33:39.478Z,6.10
2022-10-30T00:36:08.013Z,4.83
2022-10-30T00:38:36.551Z,5.30
2022-10-30T00:41:06.251Z,4.77
2022-10-30T00:43:36.012Z,5.63
2022-10-30T00:46:15.695Z,4.90
2022-10-30T00:48:44.415Z,5.10
2022-10-30T00:51:13.544Z,5.90
2022-10-30T00:53:42.545Z,4.73
2022-10-30T00:56:13.213Z,4.97
2022-10-30T00:58:43.075Z,4.90
2022-10-30T01:01:13.312Z,4.87
2022-10-30T01:03:42.159Z,4.87
2022-10-30T01:06:12.185Z,5.13
2022-10-30T01:08:40.423Z,5.73
2022-10-30T01:11:09.384Z,5.73
2022-10-30T01:13:40.266Z,5.57
2022-10-30T01:16:19.579Z,5.37
2022-10-30T01:18:53.061Z,5.50
2022-10-30T01:21:37.168Z,5.07
2022-10-30T01:24:12.034Z,5.70
2022-10-30T01:26:43.687Z,5.20
2022-10-30T01:29:20.776Z,5.27
2022-10-30T01:31:53.775Z,5.17
2022-10-30T01:34:22.814Z,5.10
2022-10-30T01:36:53.821Z,4.77
2022-10-30T01:39:23.501Z,5.20
2022-10-30T01:41:51.678Z,4.73
2022-10-30T01:44:23.895Z,5.40
2022-10-30T01:46:58.870Z,5.30
2022-10-30T01:49:34.988Z,6.30
2022-10-30T01:52:08.137Z,5.30
2022-10-30T01:54:40.883Z,5.33
2022-10-30T01:57:13.456Z,3.80
2022-10-30T01:59:45.040Z,4.33
2022-10-30T02:02:13.661Z,5.43
2022-10-30T02:04:42.703Z,5.10
2022-10-30T02:07:11.410Z,5.17
2022-10-30T02:09:39.986Z,5.80
2022-10-30T02:12:08.755Z,6.87
2022-10-30T02:14:39.223Z,4.90
2022-10-30T02:17:09.795Z,5.30
2022-10-30T02:19:38.002Z,5.27
2022-10-30T02:22:07.847Z,5.90
2022-10-30T02:24:36.210Z,4.30
2022-10-30T02:27:04.467Z,6.37
2022-10-30T02:29:32.669Z,6.30
2022-10-30T02:32:00.873Z,5.47
2022-10-30T02:34:29.079Z,5.03
2022-10-30T02:36:57.455Z,4.80
2022-10-30T02:39:27.303Z,4.83
2022-10-30T02:41:55.459Z,6.13
2022-10-30T02:44:23.651Z,5.50
2022-10-30T02:46:51.816Z,5.33
2022-10-30T02:49:20.012Z,4.47
2022-10-30T02:51:48.167Z,5.20
2022-10-30T02:54:16.364Z,4.97
2022-10-30T02:56:46.136Z,4.70
2022-10-30T02:59:14.358Z,4.80
2022-10-30T03:01:42.649Z,8.50
2022-10-30T03:04:10.953Z,5.30
2022-10-30T03:06:39.430Z,5.20
2022-10-30T03:09:07.910Z,5.60
2022-10-30T03:11:36.539Z,5.33
2022-10-30T03:14:06.122Z,5.50
2022-10-30T03:16:34.503Z,5.10
2022-10-30T03:19:02.697Z,5.77
2022-10-30T03:21:31.195Z,6.07
2022-10-30T03:23:59.385Z,5.07
2022-10-30T03:26:27.854Z,6.10
2022-10-30T03:28:56.055Z,5.93
2022-10-30T03:31:25.839Z,5.60
2022-10-30T03:33:54.247Z,6.20
2022-10-30T03:36:22.431Z,6.83
2022-10-30T03:38:50.607Z,6.67
2022-10-30T03:41:18.778Z,6.07
2022-10-30T03:43:47.039Z,7.23
2022-10-30T03:46:15.360Z,5.47
2022-10-30T03:48:45.116Z,5.37
2022-10-30T03:51:13.534Z,4.83
2022-10-30T03:53:41.719Z,6.60
2022-10-30T03:56:10.909Z,5.23
2022-10-30T03:58:39.169Z,6.00
2022-10-30T04:01:08.227Z,6.47
2022-10-30T04:03:36.605Z,5.50
2022-10-30T04:06:06.923Z,6.00
2022-10-30T04:08:35.856Z,5.67
2022-10-30T04:11:04.080Z,7.90
2022-10-30T04:13:32.279Z,5.70
2022-10-30T04:16:00.438Z,5.90
2022-10-30T04:18:28.748Z,6.10
2022-10-30T04:20:57.172Z,6.50
2022-10-30T04:23:26.886Z,6.50
2022-10-30T04:25:55.079Z,6.37
2022-10-30T04:28:23.274Z,5.60
2022-10-30T04:30:51.468Z,5.40
2022-10-30T04:33:19.937Z,5.40
2022-10-30T04:35:48.091Z,5.63
2022-10-30T04:38:18.941Z,5.47
2022-10-30T04:40:48.480Z,6.00
2022-10-30T04:43:16.816Z,5.77
2022-10-30T04:45:45.188Z,6.17
2022-10-30T04:48:14.701Z,5.60
2022-10-30T04:50:43.516Z,5.90
2022-10-30T04:53:13.680Z,5.10
2022-10-30T04:55:41.872Z,5.70
2022-10-30T04:58:12.407Z,5.87
2022-10-30T05:00:40.666Z,6.73
2022-10-30T05:03:08.917Z,5.97
2022-10-30T05:05:37.101Z,5.17
2022-10-30T05:08:05.297Z,6.20
2022-10-30T05:10:33.439Z,6.13
2022-10-30T05:13:01.650Z,5.17
2022-10-30T05:15:31.425Z,5.33
2022-10-30T05:17:59.880Z,5.93
2022-10-30T05:20:28.267Z,6.00
2022-10-30T05:22:56.991Z,5.30
2022-10-30T05:25:25.341Z,5.23
2022-10-30T05:27:59.302Z,6.17
2022-10-30T05:30:28.250Z,5.80
2022-10-30T05:33:01.394Z,6.70
2022-10-30T05:35:30.133Z,5.20
2022-10-30T05:37:58.443Z,7.17
2022-10-30T05:40:26.736Z,5.47
2022-10-30T05:42:55.447Z,6.07
2022-10-30T05:45:23.957Z,6.27
2022-10-30T05:47:56.825Z,6.07
2022-10-30T05:50:27.163Z,5.83
2022-10-30T05:52:57.044Z,6.53
2022-10-30T05:55:25.342Z,6.30
2022-10-30T05:57:57.278Z,6.00
2022-10-30T06:00:26.288Z,5.30
2022-10-30T06:02:54.517Z,5.97
2022-10-30T06:05:22.720Z,6.00
2022-10-30T06:07:52.276Z,6.10
2022-10-30T06:10:20.480Z,5.43
2022-10-30T06:12:54.748Z,5.40
2022-10-30T06:15:23.155Z,5.90
2022-10-30T06:17:51.731Z,5.63
2022-10-30T06:20:20.818Z,5.17
2022-10-30T06:22:56.538Z,5.63
2022-10-30T06:25:24.909Z,5.50
2022-10-30T06:27:53.778Z,7.33
2022-10-30T06:30:22.332Z,6.00
2022-10-30T06:32:50.577Z,7.10
2022-10-30T06:35:18.885Z,4.47
2022-10-30T06:37:47.894Z,6.87
2022-10-30T06:40:17.899Z,6.40
2022-10-30T06:42:46.440Z,6.63
2022-10-30T06:45:15.564Z,5.87
2022-10-30T06:47:46.082Z,6.17
2022-10-30T06:50:15.769Z,6.37
2022-10-30T06:52:44.193Z,4.87
2022-10-30T06:55:13.736Z,5.53
2022-10-30T06:57:43.303Z,5.90
2022-10-30T07:00:12.112Z,4.90
2022-10-30T07:02:40.342Z,6.33
2022-10-30T07:05:09.401Z,7.20
2022-10-30T07:07:37.589Z,5.00
2022-10-30T07:10:06.106Z,5.97
2022-10-30T07:12:34.336Z,6.20
2022-10-30T07:15:03.895Z,6.43
2022-10-30T07:17:32.143Z,6.43
2022-10-30T07:20:00.301Z,6.73
2022-10-30T07:22:28.488Z,6.80
2022-10-30T07:24:57.858Z,5.70
2022-10-30T07:27:26.043Z,6.43
2022-10-30T07:29:54.222Z,5.63
2022-10-30T07:32:23.841Z,6.33
2022-10-30T07:34:52.036Z,7.07
2022-10-30T07:37:20.420Z,6.67
2022-10-30T07:39:48.617Z,6.30
2022-10-30T07:42:18.016Z,7.10
2022-10-30T07:44:46.259Z,7.10
2022-10-30T07:47:14.437Z,6.40
2022-10-30T07:49:43.977Z,6.67
2022-10-30T07:52:16.313Z,6.03
2022-10-30T07:54:45.812Z,6.70
2022-10-30T07:57:14.016Z,5.80
2022-10-30T07:59:42.439Z,6.37
2022-10-30T08:02:11.836Z,6.13
2022-10-30T08:04:40.255Z,6.83
2022-10-30T08:07:09.907Z,7.40
2022-10-30T08:09:38.090Z,6.83
2022-10-30T08:12:08.895Z,5.93
2022-10-30T08:14:39.390Z,6.03
2022-10-30T08:17:10.333Z,6.70
2022-10-30T08:19:38.715Z,6.87
2022-10-30T08:22:07.476Z,6.63
2022-10-30T08:24:41.962Z,6.77
2022-10-30T08:27:10.165Z,6.33
2022-10-30T08:29:38.341Z,7.03
2022-10-30T08:32:06.848Z,7.27
2022-10-30T08:34:35.216Z,6.73
2022-10-30T08:37:10.207Z,6.20
2022-10-30T08:39:51.716Z,8.60
2022-10-30T08:42:19.946Z,5.77
2022-10-30T08:44:48.120Z,5.63
2022-10-30T08:47:17.384Z,6.20
2022-10-30T08:49:45.527Z,7.27
2022-10-30T08:52:13.774Z,6.00
2022-10-30T08:54:41.968Z,5.23
2022-10-30T08:57:11.532Z,4.67
2022-10-30T08:59:40.740Z,4.40
2022-10-30T09:02:09.849Z,6.63
2022-10-30T09:04:38.092Z,5.43
2022-10-30T09:07:08.878Z,5.73
2022-10-30T09:09:40.455Z,5.43
2022-10-30T09:12:08.753Z,4.83
2022-10-30T09:14:38.249Z,4.90
2022-10-30T09:17:09.295Z,5.90
2022-10-30T09:19:38.148Z,5.83
2022-10-30T09:22:06.801Z,4.30
2022-10-30T09:24:42.277Z,5.70
2022-10-30T09:27:10.475Z,5.33
2022-10-30T09:29:40.048Z,4.90
2022-10-30T09:32:10.304Z,5.47
2022-10-30T09:34:40.018Z,5.50
2022-10-30T09:37:08.323Z,4.40
2022-10-30T09:39:36.851Z,4.77
2022-10-30T09:42:15.440Z,5.00
2022-10-30T09:45:08.061Z,5.10
2022-10-30T09:47:39.910Z,5.47
2022-10-30T09:50:16.550Z,4.83
2022-10-30T09:52:47.529Z,4.80
2022-10-30T09:55:25.757Z,5.53
2022-10-30T09:57:59.233Z,4.67
2022-10-30T10:00:32.383Z,5.20
2022-10-30T10:03:07.260Z,5.80
2022-10-30T10:05:40.171Z,4.40
2022-10-30T10:08:10.721Z,5.17
2022-10-30T10:10:41.595Z,4.87
2022-10-30T10:13:13.745Z,5.57
2022-10-30T10:15:45.205Z,4.43
2022-10-30T10:18:20.561Z,5.20
2022-10-30T10:20:52.350Z,5.47
2022-10-30T10:23:21.700Z,6.90
2022-10-30T10:25:54.178Z,4.97
2022-10-30T10:28:42.554Z,4.13
2022-10-30T10:31:18.807Z,4.60
2022-10-30T10:33:55.202Z,4.90
2022-10-30T10:36:31.693Z,5.10
2022-10-30T10:39:05.080Z,4.70
2022-10-30T10:41:42.680Z,5.57
2022-10-30T10:44:19.139Z,4.43
2022-10-30T10:46:54.128Z,4.73
2022-10-30T10:49:29.289Z,5.40
2022-10-30T10:51:59.056Z,5.13
2022-10-30T10:54:32.784Z,5.20
2022-10-30T10:57:03.609Z,4.70
2022-10-30T10:59:35.596Z,4.17
2022-10-30T11:02:14.240Z,3.73
2022-10-30T11:04:43.567Z,4.67
2022-10-30T11:07:21.043Z,4.57
2022-10-30T11:09:52.620Z,4.30
2022-10-30T11:12:22.818Z,5.33
2022-10-30T11:14:51.077Z,4.77
2022-10-30T11:17:34.017Z,5.63
2022-10-30T11:20:03.182Z,4.60
2022-10-30T11:22:35.720Z,4.27
2022-10-30T11:25:20.356Z,4.20
2022-10-30T11:27:49.628Z,4.63
2022-10-30T11:30:21.266Z,4.73
2022-10-30T11:32:51.944Z,4.40
2022-10-30T11:35:22.640Z,5.00
2022-10-30T11:37:51.744Z,5.13
2022-10-30T11:40:21.864Z,4.43
2022-10-30T11:42:51.756Z,4.33
2022-10-30T11:45:21.873Z,4.80
2022-10-30T11:47:51.597Z,4.43
2022-10-30T11:50:21.495Z,5.30
2022-10-30T11:52:50.684Z,5.67
2022-10-30T11:55:21.217Z,4.87
2022-10-30T11:57:54.225Z,5.00
2022-10-30T12:00:23.938Z,4.80
2022-10-30T12:02:54.035Z,4.60
2022-10-30T12:05:39.012Z,5.00
2022-10-30T12:08:18.503Z,3.80
2022-10-30T12:10:48.075Z,4.73
2022-10-30T12:13:17.945Z,4.23
2022-10-30T12:15:47.457Z,4.00
2022-10-30T12:18:20.675Z,4.70
2022-10-30T12:20:50.625Z,5.10
2022-10-30T12:23:21.069Z,3.80
2022-10-30T12:25:52.344Z,3.90
2022-10-30T12:28:22.138Z,4.17
2022-10-30T12:30:53.386Z,4.67
2022-10-30T12:33:26.019Z,4.10
2022-10-30T12:35:56.706Z,3.70
2022-10-30T12:38:28.610Z,4.40
2022-10-30T12:41:00.807Z,3.80
2022-10-30T12:43:29.715Z,4.10
2022-10-30T12:46:02.438Z,4.13
2022-10-30T12:48:37.302Z,3.90
2022-10-30T12:51:15.012Z,4.40
2022-10-30T12:53:50.491Z,4.10
2022-10-30T12:56:21.290Z,4.43
2022-10-30T12:58:52.299Z,3.83
2022-10-30T13:01:27.780Z,4.40
2022-10-30T13:03:59.329Z,4.50
2022-10-30T13:06:29.280Z,4.53
2022-10-30T13:09:06.854Z,4.90
2022-10-30T13:11:40.106Z,3.90
2022-10-30T13:14:15.776Z,3.60
2022-10-30T13:16:44.321Z,3.13
2022-10-30T13:19:14.890Z,4.10
2022-10-30T13:21:46.312Z,3.87
2022-10-30T13:24:16.707Z,3.20
2022-10-30T13:26:47.707Z,3.07
2022-10-30T13:29:19.077Z,4.23
2022-10-30T13:31:52.089Z,3.87
2022-10-30T13:34:38.372Z,3.50
2022-10-30T13:37:11.488Z,3.07
2022-10-30T13:39:42.745Z,3.60
2022-10-30T13:42:18.580Z,3.53
2022-10-30T13:44:51.732Z,3.40
2022-10-30T13:47:25.951Z,3.37
2022-10-30T13:50:12.182Z,3.27
2022-10-30T13:52:42.717Z,3.40
2022-10-30T13:55:16.356Z,3.90
2022-10-30T13:57:47.864Z,3.50
2022-10-30T14:00:18.408Z,3.80
2022-10-30T14:03:05.828Z,3.17
2022-10-30T14:05:37.113Z,3.33
2022-10-30T14:08:10.156Z,3.60
2022-10-30T14:10:45.574Z,3.27
2022-10-30T14:13:16.455Z,3.20
2022-10-30T14:15:48.414Z,3.33
2022-10-30T14:18:25.562Z,3.50
2022-10-30T14:21:00.853Z,3.60
2022-10-30T14:23:32.551Z,4.33
2022-10-30T14:26:13.588Z,3.70
2022-10-30T14:28:42.440Z,4.10
2022-10-30T14:31:11.377Z,3.43
2022-10-30T14:33:44.057Z,2.97
2022-10-30T14:36:16.445Z,3.63
2022-10-30T14:38:53.662Z,3.80
2022-10-30T14:41:42.569Z,3.60
2022-10-30T14:44:33.492Z,3.40
2022-10-30T14:47:07.519Z,4.90
2022-10-30T14:49:38.687Z,3.77
2022-10-30T14:52:13.048Z,4.03
2022-10-30T14:54:46.477Z,3.13
2022-10-30T14:57:21.992Z,3.90
2022-10-30T14:59:50.189Z,3.97
2022-10-30T15:02:25.705Z,4.20
2022-10-30T15:05:09.981Z,4.10
2022-10-30T15:07:40.117Z,3.43
2022-10-30T15:10:13.278Z,4.80
2022-10-30T15:12:46.608Z,3.50
2022-10-30T15:15:16.701Z,4.50
2022-10-30T15:17:46.103Z,4.40
2022-10-30T15:20:17.663Z,3.97
2022-10-30T15:22:46.533Z,3.83
2022-10-30T15:25:19.940Z,3.67
2022-10-30T15:27:49.104Z,4.53
2022-10-30T15:30:18.842Z,5.30
2022-10-30T15:32:47.539Z,3.90
2022-10-30T15:35:22.775Z,3.67
2022-10-30T15:38:04.113Z,3.80
2022-10-30T15:40:35.052Z,3.73
2022-10-30T15:43:04.439Z,4.70
2022-10-30T15:45:35.863Z,3.00
2022-10-30T15:48:07.952Z,4.17
2022-10-30T15:50:37.107Z,5.17
2022-10-30T15:53:05.683Z,4.97
2022-10-30T15:55:35.539Z,3.50
2022-10-30T15:58:05.634Z,6.83
2022-10-30T16:00:35.078Z,5.87
2022-10-30T16:03:04.457Z,6.73
2022-10-30T16:05:33.282Z,5.07
2022-10-30T16:08:02.895Z,3.50
2022-10-30T16:10:34.262Z,3.60
2022-10-30T16:13:04.186Z,5.07
2022-10-30T16:15:33.100Z,5.30
2022-10-30T16:18:08.056Z,4.80
2022-10-30T16:20:36.624Z,6.53
2022-10-30T16:23:05.959Z,10.00
2022-10-30T16:25:37.343Z,8.77
2022-10-30T16:28:07.086Z,6.63
2022-10-30T16:30:35.708Z,7.13
2022-10-30T16:33:06.267Z,7.40
2022-10-30T16:35:34.453Z,5.13
2022-10-30T16:38:03.567Z,5.80
2022-10-30T16:40:32.424Z,7.10
2022-10-30T16:43:03.308Z,5.33
2022-10-30T16:45:46.529Z,7.30
2022-10-30T16:50:51.277Z,5.60
2022-10-30T16:53:21.450Z,5.20
2022-10-30T16:55:49.798Z,4.87
2022-10-30T16:58:18.741Z,4.47
2022-10-30T17:00:51.122Z,3.90
2022-10-30T17:03:23.766Z,5.80
2022-10-30T17:05:58.504Z,5.90
2022-10-30T17:08:29.377Z,6.07
2022-10-30T17:10:59.634Z,4.77
2022-10-30T17:13:32.393Z,6.20
2022-10-30T17:16:01.073Z,6.17
2022-10-30T17:18:34.596Z,5.37
2022-10-30T17:21:06.344Z,4.43
2022-10-30T17:23:34.630Z,5.33
2022-10-30T17:26:09.420Z,6.73
2022-10-30T17:28:38.188Z,5.07
2022-10-30T17:31:24.112Z,4.47
2022-10-30T17:34:12.196Z,5.87
2022-10-30T17:36:40.374Z,5.27
2022-10-30T17:39:08.826Z,5.90
2022-10-30T17:41:37.292Z,6.47
2022-10-30T17:44:06.385Z,5.53
2022-10-30T17:46:34.581Z,7.83
2022-10-30T17:49:20.348Z,6.87
2022-10-30T17:51:48.528Z,8.93
2022-10-30T17:54:16.723Z,7.10
2022-10-30T17:56:44.907Z,8.30
2022-10-30T17:59:13.087Z,5.67
2022-10-30T18:01:41.447Z,5.77
2022-10-30T18:04:19.689Z,6.03
2022-10-30T18:06:49.624Z,7.17
2022-10-30T18:09:17.972Z,5.70
2022-10-30T18:11:48.233Z,5.20
2022-10-30T18:14:16.419Z,7.00
2022-10-30T18:16:44.639Z,5.50
2022-10-30T18:19:14.163Z,5.00
2022-10-30T18:21:42.335Z,5.30
2022-10-30T18:24:14.129Z,4.77
2022-10-30T18:26:42.967Z,5.20
2022-10-30T18:29:11.694Z,5.30
2022-10-30T18:31:40.353Z,5.80
2022-10-30T18:34:13.171Z,6.10
2022-10-30T18:36:42.908Z,5.83
2022-10-30T18:39:12.881Z,7.90
2022-10-30T18:41:42.751Z,6.63
2022-10-30T18:44:14.503Z,6.20
2022-10-30T18:46:42.724Z,5.97
2022-10-30T18:49:10.971Z,6.07
2022-10-30T18:51:39.611Z,6.00
2022-10-30T18:54:13.420Z,6.10
2022-10-30T18:56:41.617Z,6.30
2022-10-30T18:59:09.818Z,8.07
2022-10-30T19:01:38.206Z,6.37
2022-10-30T19:04:07.780Z,6.73
2022-10-30T19:06:38.400Z,6.50
2022-10-30T19:09:06.781Z,5.67
2022-10-30T19:11:39.395Z,5.40
2022-10-30T19:14:13.264Z,5.60
2022-10-30T19:16:41.779Z,6.57
2022-10-30T19:19:11.203Z,5.93
2022-10-30T19:21:39.379Z,6.20
2022-10-30T19:24:11.454Z,5.50
2022-10-30T19:26:41.045Z,6.43
2022-10-30T19:29:09.319Z,6.00
2022-10-30T19:31:37.664Z,7.00
2022-10-30T19:34:06.001Z,6.10
2022-10-30T19:36:36.350Z,7.13
2022-10-30T19:39:09.245Z,5.93
2022-10-30T19:41:38.638Z,10.87
2022-10-30T19:44:08.600Z,9.03
2022-10-30T19:46:38.294Z,11.70
2022-10-30T19:49:15.005Z,9.50
2022-10-30T19:51:44.349Z,15.50
2022-10-30T19:54:12.844Z,9.57
2022-10-30T19:56:42.480Z,8.53
2022-10-30T19:59:13.528Z,6.87
2022-10-30T20:01:43.740Z,6.93
2022-10-30T20:04:12.221Z,6.97
2022-10-30T20:06:40.649Z,7.57
2022-10-30T20:09:10.722Z,7.27
2022-10-30T20:11:38.945Z,7.73
2022-10-30T20:14:07.130Z,8.33
2022-10-30T20:16:39.246Z,8.03
2022-10-30T20:19:22.181Z,7.53
2022-10-30T20:21:50.348Z,7.97
2022-10-30T20:24:18.546Z,6.97
2022-10-30T20:26:46.790Z,7.23
2022-10-30T20:29:15.391Z,6.00
2022-10-30T20:31:44.996Z,7.43
2022-10-30T20:34:14.503Z,7.30
2022-10-30T20:36:42.712Z,6.30
2022-10-30T20:39:11.616Z,7.07
2022-10-30T20:41:40.173Z,7.60
2022-10-30T20:44:08.404Z,7.13
2022-10-30T20:46:37.672Z,9.93
2022-10-30T20:49:17.277Z,7.80
2022-10-30T20:51:47.890Z,7.47
2022-10-30T20:54:16.331Z,8.27
2022-10-30T20:56:44.564Z,7.33
2022-10-30T20:59:12.847Z,7.53
2022-10-30T21:01:41.376Z,7.37
2022-10-30T21:04:11.110Z,8.10
2022-10-30T21:06:39.304Z,7.23
2022-10-30T21:09:07.536Z,7.20
2022-10-30T21:11:35.733Z,7.50
2022-10-30T21:14:03.948Z,6.73
2022-10-30T21:16:33.215Z,6.63
2022-10-30T21:19:01.541Z,7.00
2022-10-30T21:21:31.099Z,7.50
2022-10-30T21:23:59.499Z,7.20
2022-10-30T21:26:27.769Z,6.80
2022-10-30T21:28:56.223Z,6.80
2022-10-30T21:31:24.445Z,7.20
2022-10-30T21:33:52.847Z,9.13
2022-10-30T21:36:22.432Z,7.47
2022-10-30T21:38:52.084Z,7.63
2022-10-30T21:41:21.061Z,8.67
2022-10-30T21:43:52.904Z,8.30
2022-10-30T21:46:21.758Z,9.00
2022-10-30T21:48:50.052Z,10.00
2022-10-30T21:51:19.109Z,8.00
2022-10-30T21:53:48.003Z,7.60
2022-10-30T21:56:19.419Z,7.70
2022-10-30T21:58:49.093Z,9.03
2022-10-30T22:01:18.170Z,9.20
2022-10-30T22:03:46.501Z,8.83
2022-10-30T22:06:15.388Z,8.83
2022-10-30T22:08:47.114Z,7.80
2022-10-30T22:11:15.928Z,7.63
2022-10-30T22:13:45.988Z,8.60
2022-10-30T22:16:15.246Z,7.27
2022-10-30T22:18:43.724Z,7.57
2022-10-30T22:21:12.778Z,8.57
2022-10-30T22:23:41.800Z,8.17
2022-10-30T22:26:12.209Z,7.33
2022-10-30T22:28:40.478Z,8.73
2022-10-30T22:31:12.108Z,7.40
2022-10-30T22:33:40.488Z,9.00
2022-10-30T22:36:09.864Z,8.07
2022-10-30T22:38:39.219Z,8.27
2022-10-30T22:41:11.437Z,7.10
2022-10-30T22:43:40.000Z,7.93
2022-10-30T22:46:09.688Z,8.07
2022-10-30T22:48:38.279Z,7.50
2022-10-30T22:51:11.814Z,7.57
2022-10-30T22:53:43.481Z,7.93
2022-10-30T22:56:15.935Z,8.57
2022-10-30T22:58:44.543Z,7.37
2022-10-30T23:01:14.964Z,6.80
2022-10-30T23:03:43.654Z,9.57
2022-10-30T23:06:12.206Z,7.30
2022-10-30T23:08:40.946Z,9.40
2022-10-30T23:11:09.313Z,8.07
2022-10-30T23:13:37.857Z,6.87
2022-10-30T23:16:06.964Z,8.00
2022-10-30T23:18:36.822Z,7.77
2022-10-30T23:21:06.860Z,7.40
2022-10-30T23:23:36.897Z,7.53
2022-10-30T23:26:05.883Z,7.77
2022-10-30T23:28:34.304Z,8.07
2022-10-30T23:31:04.672Z,6.90
2022-10-30T23:33:32.899Z,7.10
2022-10-30T23:36:02.559Z,6.20
2022-10-30T23:38:30.832Z,5.73
2022-10-30T23:40:59.102Z,4.87
2022-10-30T23:43:27.353Z,5.67
2022-10-30T23:45:55.765Z,5.40
2022-10-30T23:48:26.082Z,7.70
2022-10-30T23:50:54.305Z,9.50
2022-10-30T23:53:23.882Z,7.57
2022-10-30T23:55:53.096Z,7.70
2022-10-30T23:58:21.386Z,7.87
